sensor_id;sensor_type;location;lat;lon;timestamp;temperature;humidity
18454;DHT22;9356;52.202;20.950;2023-05-07T11:41:39;10.70;92.40
18454;DHT22;9356;52.202;20.950;2023-05-07T12:30:11;10.90;91.10
18454;DHT22;9356;52.202;20.950;2023-05-07T12:37:54;10.90;90.80
18454;DHT22;9356;52.202;20.950;2023-05-07T12:38:57;13.60;91.60
18454;DHT22;9356;52.202;20.950;2023-05-07T12:40:09;10.80;90.80
18454;DHT22;9356;52.202;20.950;2023-05-07T12:41:12;10.80;90.80
18454;DHT22;9356;52.202;20.950;2023-05-07T12:42:20;10.70;91.00
18454;DHT22;9356;52.202;20.950;2023-05-07T12:43:27;10.60;91.10
18454;DHT22;9356;52.202;20.950;2023-05-07T12:44:35;10.60;91.10
18454;DHT22;9356;52.202;20.950;2023-05-07T12:45:37;10.70;91.60
18454;DHT22;9356;52.202;20.950;2023-05-07T12:46:42;10.70;91.60
18454;DHT22;9356;52.202;20.950;2023-05-07T12:47:45;8.30;90.50
18454;DHT22;9356;52.202;20.950;2023-05-07T12:48:48;9.20;90.90
18454;DHT22;9356;52.202;20.950;2023-05-07T12:49:52;10.80;91.20
18454;DHT22;9356;52.202;20.950;2023-05-07T12:52:05;10.80;91.10
18454;DHT22;9356;52.202;20.950;2023-05-07T12:54:29;10.80;91.00
18454;DHT22;9356;52.202;20.950;2023-05-07T12:55:41;10.90;91.30
18454;DHT22;9356;52.202;20.950;2023-05-07T12:56:46;11.00;91.60
18454;DHT22;9356;52.202;20.950;2023-05-07T12:57:53;11.00;91.20
18454;DHT22;9356;52.202;20.950;2023-05-07T12:58:57;11.00;90.80
18454;DHT22;9356;52.202;20.950;2023-05-07T13:00:01;11.00;90.80
18454;DHT22;9356;52.202;20.950;2023-05-07T13:01:06;11.30;90.70
18454;DHT22;9356;52.202;20.950;2023-05-07T13:04:26;11.80;89.50
18454;DHT22;9356;52.202;20.950;2023-05-07T13:05:31;11.90;89.60
18454;DHT22;9356;52.202;20.950;2023-05-07T13:06:38;12.00;89.00
18454;DHT22;9356;52.202;20.950;2023-05-07T13:07:52;12.00;87.60
18454;DHT22;9356;52.202;20.950;2023-05-07T13:10:01;12.00;86.40
18454;DHT22;9356;52.202;20.950;2023-05-07T13:11:04;11.90;86.10
18454;DHT22;9356;52.202;20.950;2023-05-07T13:12:08;11.80;85.20
18454;DHT22;9356;52.202;20.950;2023-05-07T13:14:17;11.60;85.70
18454;DHT22;9356;52.202;20.950;2023-05-07T13:17:33;11.30;86.90
18454;DHT22;9356;52.202;20.950;2023-05-07T13:20:53;11.20;87.90
18454;DHT22;9356;52.202;20.950;2023-05-07T13:21:58;11.40;87.70
18454;DHT22;9356;52.202;20.950;2023-05-07T13:25:11;15.00;90.00
18454;DHT22;9356;52.202;20.950;2023-05-07T13:27:27;11.50;86.70
18454;DHT22;9356;52.202;20.950;2023-05-07T13:28:33;11.40;87.50
18454;DHT22;9356;52.202;20.950;2023-05-07T13:29:36;11.40;87.50
18454;DHT22;9356;52.202;20.950;2023-05-07T13:30:45;11.30;87.50
18454;DHT22;9356;52.202;20.950;2023-05-07T13:31:51;11.40;87.50
18454;DHT22;9356;52.202;20.950;2023-05-07T13:34:01;11.30;88.30
18454;DHT22;9356;52.202;20.950;2023-05-07T13:35:05;11.20;87.90
18454;DHT22;9356;52.202;20.950;2023-05-07T13:38:19;11.20;89.20
18454;DHT22;9356;52.202;20.950;2023-05-07T13:39:25;11.30;89.20
18454;DHT22;9356;52.202;20.950;2023-05-07T13:40:29;14.50;90.10
18454;DHT22;9356;52.202;20.950;2023-05-07T13:41:34;11.60;88.10
18454;DHT22;9356;52.202;20.950;2023-05-07T13:42:37;11.70;87.90
18454;DHT22;9356;52.202;20.950;2023-05-07T13:43:40;11.70;87.20
18454;DHT22;9356;52.202;20.950;2023-05-07T13:44:43;11.80;87.10
18454;DHT22;9356;52.202;20.950;2023-05-07T13:45:49;11.70;86.00
18454;DHT22;9356;52.202;20.950;2023-05-07T13:46:53;11.70;85.80
18454;DHT22;9356;52.202;20.950;2023-05-07T13:49:02;9.60;85.60
18454;DHT22;9356;52.202;20.950;2023-05-07T13:56:37;11.90;84.10
18454;DHT22;9356;52.202;20.950;2023-05-07T13:58:44;12.10;82.50
18454;DHT22;9356;52.202;20.950;2023-05-07T14:00:01;12.20;82.10
18454;DHT22;9356;52.202;20.950;2023-05-07T14:03:22;12.00;82.00
18454;DHT22;9356;52.202;20.950;2023-05-07T14:05:32;12.00;82.50
18454;DHT22;9356;52.202;20.950;2023-05-07T14:07:39;9.90;82.50
18454;DHT22;9356;52.202;20.950;2023-05-07T14:08:43;12.10;83.70
18454;DHT22;9356;52.202;20.950;2023-05-07T14:10:53;12.10;83.70
18454;DHT22;9356;52.202;20.950;2023-05-07T14:14:08;12.40;81.30
18454;DHT22;9356;52.202;20.950;2023-05-07T14:15:15;12.40;81.40
18454;DHT22;9356;52.202;20.950;2023-05-07T14:16:18;12.40;81.80
18454;DHT22;9356;52.202;20.950;2023-05-07T14:18:29;12.40;82.60
18454;DHT22;9356;52.202;20.950;2023-05-07T14:19:35;8.30;79.10
18454;DHT22;9356;52.202;20.950;2023-05-07T14:20:39;12.30;82.40
18454;DHT22;9356;52.202;20.950;2023-05-07T14:21:43;12.40;83.10
18454;DHT22;9356;52.202;20.950;2023-05-07T14:22:46;12.40;82.20
18454;DHT22;9356;52.202;20.950;2023-05-07T14:23:50;12.40;81.90
18454;DHT22;9356;52.202;20.950;2023-05-07T14:24:54;12.50;81.10
18454;DHT22;9356;52.202;20.950;2023-05-07T14:26:10;10.30;78.70
18454;DHT22;9356;52.202;20.950;2023-05-07T14:27:12;12.80;79.50
18454;DHT22;9356;52.202;20.950;2023-05-07T14:28:17;12.80;79.40
18454;DHT22;9356;52.202;20.950;2023-05-07T14:29:21;12.60;78.20
18454;DHT22;9356;52.202;20.950;2023-05-07T14:31:29;12.70;78.40
18454;DHT22;9356;52.202;20.950;2023-05-07T14:32:32;12.60;79.00
18454;DHT22;9356;52.202;20.950;2023-05-07T14:34:41;12.60;79.90
18454;DHT22;9356;52.202;20.950;2023-05-07T14:35:45;12.50;80.10
18454;DHT22;9356;52.202;20.950;2023-05-07T14:36:50;12.50;80.00
18454;DHT22;9356;52.202;20.950;2023-05-07T14:37:56;12.50;80.40
18454;DHT22;9356;52.202;20.950;2023-05-07T14:39:00;12.50;78.80
18454;DHT22;9356;52.202;20.950;2023-05-07T14:40:08;12.50;79.00
18454;DHT22;9356;52.202;20.950;2023-05-07T14:41:13;12.30;81.00
18454;DHT22;9356;52.202;20.950;2023-05-07T14:42:18;12.50;81.30
18454;DHT22;9356;52.202;20.950;2023-05-07T14:43:22;12.30;79.90
18454;DHT22;9356;52.202;20.950;2023-05-07T14:44:25;12.30;79.80
18454;DHT22;9356;52.202;20.950;2023-05-07T14:45:29;11.40;78.20
18454;DHT22;9356;52.202;20.950;2023-05-07T14:46:33;10.20;76.00
18454;DHT22;9356;52.202;20.950;2023-05-07T14:47:37;10.20;75.90
18454;DHT22;9356;52.202;20.950;2023-05-07T14:50:50;12.60;77.60
18454;DHT22;9356;52.202;20.950;2023-05-07T14:52:58;12.80;76.90
18454;DHT22;9356;52.202;20.950;2023-05-07T14:54:01;12.90;76.50
18454;DHT22;9356;52.202;20.950;2023-05-07T14:55:08;16.10;77.70
18454;DHT22;9356;52.202;20.950;2023-05-07T14:58:20;13.00;75.10
18454;DHT22;9356;52.202;20.950;2023-05-07T14:59:24;13.10;75.00
18454;DHT22;9356;52.202;20.950;2023-05-07T15:00:28;13.10;73.40
18454;DHT22;9356;52.202;20.950;2023-05-07T15:02:37;13.00;74.20
18454;DHT22;9356;52.202;20.950;2023-05-07T15:04:44;13.10;75.10
18454;DHT22;9356;52.202;20.950;2023-05-07T15:05:49;13.10;74.30
18454;DHT22;9356;52.202;20.950;2023-05-07T15:08:00;12.80;73.50
18454;DHT22;9356;52.202;20.950;2023-05-07T15:10:09;12.50;74.20
18454;DHT22;9356;52.202;20.950;2023-05-07T15:13:22;12.10;73.80
18454;DHT22;9356;52.202;20.950;2023-05-07T15:14:26;12.20;74.00
18454;DHT22;9356;52.202;20.950;2023-05-07T15:17:37;12.20;74.40
18454;DHT22;9356;52.202;20.950;2023-05-07T15:18:40;12.20;74.80
18454;DHT22;9356;52.202;20.950;2023-05-07T15:21:52;12.40;73.60
18454;DHT22;9356;52.202;20.950;2023-05-07T15:25:04;12.60;73.30
18454;DHT22;9356;52.202;20.950;2023-05-07T15:27:13;12.70;71.10
18454;DHT22;9356;52.202;20.950;2023-05-07T15:39:12;12.90;70.60
18454;DHT22;9356;52.202;20.950;2023-05-07T15:59:46;13.20;70.00
18454;DHT22;9356;52.202;20.950;2023-05-07T16:26:49;12.90;68.80
18454;DHT22;9356;52.202;20.950;2023-05-07T16:31:07;13.00;69.40
18454;DHT22;9356;52.202;20.950;2023-05-07T16:32:11;12.90;69.60
18454;DHT22;9356;52.202;20.950;2023-05-07T16:33:17;12.90;69.70
18454;DHT22;9356;52.202;20.950;2023-05-07T16:35:24;12.90;68.90
18454;DHT22;9356;52.202;20.950;2023-05-07T16:36:28;12.80;69.00
18454;DHT22;9356;52.202;20.950;2023-05-07T16:39:45;12.80;69.50
18454;DHT22;9356;52.202;20.950;2023-05-07T16:40:49;13.50;70.50
18454;DHT22;9356;52.202;20.950;2023-05-07T16:43:00;12.70;69.80
18454;DHT22;9356;52.202;20.950;2023-05-07T16:45:08;12.70;70.10
18454;DHT22;9356;52.202;20.950;2023-05-07T16:47:16;12.60;69.90
18454;DHT22;9356;52.202;20.950;2023-05-07T16:48:19;12.60;69.70
18454;DHT22;9356;52.202;20.950;2023-05-07T16:49:23;12.60;68.90
18454;DHT22;9356;52.202;20.950;2023-05-07T16:50:25;12.60;68.90
18454;DHT22;9356;52.202;20.950;2023-05-07T16:51:29;12.50;69.10
18454;DHT22;9356;52.202;20.950;2023-05-07T16:52:33;12.50;69.30
18454;DHT22;9356;52.202;20.950;2023-05-07T16:54:39;12.60;69.90
18454;DHT22;9356;52.202;20.950;2023-05-07T16:56:46;12.70;69.90
18454;DHT22;9356;52.202;20.950;2023-05-07T16:57:50;10.60;68.50
18454;DHT22;9356;52.202;20.950;2023-05-07T16:58:54;9.90;67.90
18454;DHT22;9356;52.202;20.950;2023-05-07T16:59:58;12.60;69.60
18454;DHT22;9356;52.202;20.950;2023-05-07T17:01:01;12.50;69.30
18454;DHT22;9356;52.202;20.950;2023-05-07T17:02:06;12.40;69.30
18454;DHT22;9356;52.202;20.950;2023-05-07T17:03:08;12.40;69.80
18454;DHT22;9356;52.202;20.950;2023-05-07T17:04:12;12.30;70.90
18454;DHT22;9356;52.202;20.950;2023-05-07T17:05:20;12.30;71.10
18454;DHT22;9356;52.202;20.950;2023-05-07T17:06:25;12.20;70.90
18454;DHT22;9356;52.202;20.950;2023-05-07T17:07:28;12.30;71.10
18454;DHT22;9356;52.202;20.950;2023-05-07T17:08:31;12.30;71.20
18454;DHT22;9356;52.202;20.950;2023-05-07T17:09:40;12.40;70.80
18454;DHT22;9356;52.202;20.950;2023-05-07T17:10:45;12.40;70.40
18454;DHT22;9356;52.202;20.950;2023-05-07T17:11:49;12.40;70.70
18454;DHT22;9356;52.202;20.950;2023-05-07T17:12:54;12.40;70.60
18454;DHT22;9356;52.202;20.950;2023-05-07T17:15:10;12.50;71.10
18454;DHT22;9356;52.202;20.950;2023-05-07T17:16:16;12.40;71.10
18454;DHT22;9356;52.202;20.950;2023-05-07T17:17:19;12.40;71.10
18454;DHT22;9356;52.202;20.950;2023-05-07T17:18:24;12.30;71.50
18454;DHT22;9356;52.202;20.950;2023-05-07T17:19:26;12.20;71.70
18454;DHT22;9356;52.202;20.950;2023-05-07T17:20:30;15.90;75.00
18454;DHT22;9356;52.202;20.950;2023-05-07T17:21:33;12.20;72.50
18454;DHT22;9356;52.202;20.950;2023-05-07T17:24:47;12.10;73.10
18454;DHT22;9356;52.202;20.950;2023-05-07T17:25:51;12.00;73.40
18454;DHT22;9356;52.202;20.950;2023-05-07T17:26:56;12.00;73.90
18454;DHT22;9356;52.202;20.950;2023-05-07T17:29:13;12.10;74.30
18454;DHT22;9356;52.202;20.950;2023-05-07T17:30:21;12.10;74.20
18454;DHT22;9356;52.202;20.950;2023-05-07T17:31:30;12.00;74.10
18454;DHT22;9356;52.202;20.950;2023-05-07T17:32:34;9.20;72.10
18454;DHT22;9356;52.202;20.950;2023-05-07T17:33:40;11.90;73.90
18454;DHT22;9356;52.202;20.950;2023-05-07T17:34:45;12.00;84.70
18454;DHT22;9356;52.202;20.950;2023-05-07T17:35:49;12.00;79.70
18454;DHT22;9356;52.202;20.950;2023-05-07T17:36:56;12.00;75.30
18454;DHT22;9356;52.202;20.950;2023-05-07T17:38:01;12.00;75.10
18454;DHT22;9356;52.202;20.950;2023-05-07T17:39:08;13.00;75.70
18454;DHT22;9356;52.202;20.950;2023-05-07T17:40:16;11.70;74.80
18454;DHT22;9356;52.202;20.950;2023-05-07T17:41:19;11.70;75.30
18454;DHT22;9356;52.202;20.950;2023-05-07T17:42:24;11.70;75.90
18454;DHT22;9356;52.202;20.950;2023-05-07T17:43:28;11.60;76.50
18454;DHT22;9356;52.202;20.950;2023-05-07T17:46:39;11.50;76.50
18454;DHT22;9356;52.202;20.950;2023-05-07T17:47:45;11.40;76.50
18454;DHT22;9356;52.202;20.950;2023-05-07T17:48:51;11.30;76.90
18454;DHT22;9356;52.202;20.950;2023-05-07T17:49:55;11.40;76.70
18454;DHT22;9356;52.202;20.950;2023-05-07T17:51:01;11.30;76.70
18454;DHT22;9356;52.202;20.950;2023-05-07T17:52:05;11.30;76.80
18454;DHT22;9356;52.202;20.950;2023-05-07T17:54:20;11.20;77.10
18454;DHT22;9356;52.202;20.950;2023-05-07T17:56:31;11.20;76.80
18454;DHT22;9356;52.202;20.950;2023-05-07T17:58:39;11.10;77.30
18454;DHT22;9356;52.202;20.950;2023-05-07T18:00:00;11.00;77.10
18454;DHT22;9356;52.202;20.950;2023-05-07T18:01:09;11.00;77.60
18454;DHT22;9356;52.202;20.950;2023-05-07T18:02:13;11.00;78.10
18454;DHT22;9356;52.202;20.950;2023-05-07T18:03:19;11.00;78.40
18454;DHT22;9356;52.202;20.950;2023-05-07T18:04:23;11.00;78.60
18454;DHT22;9356;52.202;20.950;2023-05-07T18:05:28;11.10;78.70
18454;DHT22;9356;52.202;20.950;2023-05-07T18:06:31;11.10;78.90
18454;DHT22;9356;52.202;20.950;2023-05-07T18:07:36;11.10;79.00
18454;DHT22;9356;52.202;20.950;2023-05-07T18:08:39;11.00;78.90
18454;DHT22;9356;52.202;20.950;2023-05-07T18:09:43;11.10;78.90
18454;DHT22;9356;52.202;20.950;2023-05-07T18:10:47;11.70;79.50
18454;DHT22;9356;52.202;20.950;2023-05-07T18:11:51;11.00;79.80
18454;DHT22;9356;52.202;20.950;2023-05-07T18:12:54;11.00;79.30
18454;DHT22;9356;52.202;20.950;2023-05-07T18:13:59;11.00;79.60
18454;DHT22;9356;52.202;20.950;2023-05-07T18:15:05;11.00;80.20
18454;DHT22;9356;52.202;20.950;2023-05-07T18:16:09;11.20;80.30
18454;DHT22;9356;52.202;20.950;2023-05-07T18:17:12;10.90;80.10
18454;DHT22;9356;52.202;20.950;2023-05-07T18:18:17;10.90;80.20
18454;DHT22;9356;52.202;20.950;2023-05-07T18:19:21;10.80;80.20
18454;DHT22;9356;52.202;20.950;2023-05-07T18:20:24;10.80;80.40
18454;DHT22;9356;52.202;20.950;2023-05-07T18:21:28;10.80;80.90
18454;DHT22;9356;52.202;20.950;2023-05-07T18:22:33;10.80;80.80
18454;DHT22;9356;52.202;20.950;2023-05-07T18:24:47;10.60;81.00
18454;DHT22;9356;52.202;20.950;2023-05-07T18:25:51;10.70;81.40
18454;DHT22;9356;52.202;20.950;2023-05-07T18:26:54;10.60;81.30
18454;DHT22;9356;52.202;20.950;2023-05-07T18:27:58;10.70;81.30
18454;DHT22;9356;52.202;20.950;2023-05-07T18:29:03;12.80;84.00
18454;DHT22;9356;52.202;20.950;2023-05-07T18:30:07;10.50;82.10
18454;DHT22;9356;52.202;20.950;2023-05-07T18:31:11;9.60;81.50
18454;DHT22;9356;52.202;20.950;2023-05-07T18:32:17;10.50;82.10
18454;DHT22;9356;52.202;20.950;2023-05-07T18:33:23;10.50;82.00
18454;DHT22;9356;52.202;20.950;2023-05-07T18:34:25;10.50;81.90
18454;DHT22;9356;52.202;20.950;2023-05-07T18:35:30;10.50;81.80
18454;DHT22;9356;52.202;20.950;2023-05-07T18:36:33;10.50;82.10
18454;DHT22;9356;52.202;20.950;2023-05-07T18:37:37;10.40;82.10
18454;DHT22;9356;52.202;20.950;2023-05-07T18:38:43;10.50;82.80
18454;DHT22;9356;52.202;20.950;2023-05-07T18:39:48;10.50;82.50
18454;DHT22;9356;52.202;20.950;2023-05-07T18:40:51;10.40;82.60
18454;DHT22;9356;52.202;20.950;2023-05-07T18:43:03;10.40;83.00
18454;DHT22;9356;52.202;20.950;2023-05-07T18:44:09;10.50;83.10
18454;DHT22;9356;52.202;20.950;2023-05-07T18:46:17;10.50;83.30
18454;DHT22;9356;52.202;20.950;2023-05-07T18:47:21;10.40;83.20
18454;DHT22;9356;52.202;20.950;2023-05-07T18:48:24;10.50;83.00
18454;DHT22;9356;52.202;20.950;2023-05-07T18:49:28;10.50;83.20
18454;DHT22;9356;52.202;20.950;2023-05-07T18:50:30;10.40;83.10
18454;DHT22;9356;52.202;20.950;2023-05-07T18:51:36;10.40;83.40
18454;DHT22;9356;52.202;20.950;2023-05-07T18:52:40;10.40;83.60
18454;DHT22;9356;52.202;20.950;2023-05-07T18:53:43;11.20;83.80
18454;DHT22;9356;52.202;20.950;2023-05-07T18:56:56;10.30;83.40
18454;DHT22;9356;52.202;20.950;2023-05-07T18:58:01;10.20;83.80
18454;DHT22;9356;52.202;20.950;2023-05-07T18:59:05;10.20;83.80
18454;DHT22;9356;52.202;20.950;2023-05-07T19:00:12;10.20;83.90
18454;DHT22;9356;52.202;20.950;2023-05-07T19:01:20;10.20;84.20
18454;DHT22;9356;52.202;20.950;2023-05-07T19:03:29;10.00;84.60
18454;DHT22;9356;52.202;20.950;2023-05-07T19:04:32;10.20;84.90
18454;DHT22;9356;52.202;20.950;2023-05-07T19:05:37;10.20;85.00
18454;DHT22;9356;52.202;20.950;2023-05-07T19:06:39;10.10;85.20
18454;DHT22;9356;52.202;20.950;2023-05-07T19:07:44;10.20;85.20
18454;DHT22;9356;52.202;20.950;2023-05-07T19:08:47;10.10;85.80
18454;DHT22;9356;52.202;20.950;2023-05-07T19:09:53;13.30;87.40
18454;DHT22;9356;52.202;20.950;2023-05-07T19:12:20;10.00;86.10
18454;DHT22;9356;52.202;20.950;2023-05-07T19:13:24;5.70;84.00
18454;DHT22;9356;52.202;20.950;2023-05-07T19:14:29;10.00;87.10
18454;DHT22;9356;52.202;20.950;2023-05-07T19:15:36;10.10;87.10
18454;DHT22;9356;52.202;20.950;2023-05-07T19:16:40;10.00;87.50
18454;DHT22;9356;52.202;20.950;2023-05-07T19:17:44;10.00;87.40
18454;DHT22;9356;52.202;20.950;2023-05-07T19:18:50;10.00;87.30
18454;DHT22;9356;52.202;20.950;2023-05-07T19:19:54;9.90;87.10
18454;DHT22;9356;52.202;20.950;2023-05-07T19:20:57;9.90;87.40
18454;DHT22;9356;52.202;20.950;2023-05-07T19:22:01;9.90;87.50
18454;DHT22;9356;52.202;20.950;2023-05-07T19:23:05;8.00;87.20
18454;DHT22;9356;52.202;20.950;2023-05-07T19:24:12;9.90;88.00
18454;DHT22;9356;52.202;20.950;2023-05-07T19:25:20;9.80;88.10
18454;DHT22;9356;52.202;20.950;2023-05-07T19:26:24;9.80;88.20
18454;DHT22;9356;52.202;20.950;2023-05-07T19:27:29;9.70;88.20
18454;DHT22;9356;52.202;20.950;2023-05-07T19:28:33;13.00;90.30
18454;DHT22;9356;52.202;20.950;2023-05-07T19:29:39;13.20;99.20
18454;DHT22;9356;52.202;20.950;2023-05-07T19:30:45;10.10;99.90
18454;DHT22;9356;52.202;20.950;2023-05-07T19:31:51;10.50;99.90
18454;DHT22;9356;52.202;20.950;2023-05-07T19:33:58;11.00;99.90
18454;DHT22;9356;52.202;20.950;2023-05-07T19:35:05;11.20;99.90
18454;DHT22;9356;52.202;20.950;2023-05-07T19:36:10;11.50;99.90
18454;DHT22;9356;52.202;20.950;2023-05-07T19:37:12;11.40;98.20
18454;DHT22;9356;52.202;20.950;2023-05-07T19:38:19;11.70;98.00
18454;DHT22;9356;52.202;20.950;2023-05-07T19:39:21;11.80;97.00
18454;DHT22;9356;52.202;20.950;2023-05-07T19:40:28;11.80;95.00
18454;DHT22;9356;52.202;20.950;2023-05-07T19:41:32;11.70;93.10
18454;DHT22;9356;52.202;20.950;2023-05-07T19:42:37;11.70;94.90
18454;DHT22;9356;52.202;20.950;2023-05-07T19:43:40;11.80;95.30
18454;DHT22;9356;52.202;20.950;2023-05-07T19:44:48;14.30;95.90
18454;DHT22;9356;52.202;20.950;2023-05-07T19:45:57;11.80;94.20
18454;DHT22;9356;52.202;20.950;2023-05-07T19:47:01;13.90;95.40
18454;DHT22;9356;52.202;20.950;2023-05-07T19:48:05;16.00;96.20
18454;DHT22;9356;52.202;20.950;2023-05-07T19:49:11;11.90;93.60
18454;DHT22;9356;52.202;20.950;2023-05-07T19:50:19;11.80;91.80
18454;DHT22;9356;52.202;20.950;2023-05-07T19:51:23;11.70;91.00
18454;DHT22;9356;52.202;20.950;2023-05-07T19:52:28;11.60;90.90
18454;DHT22;9356;52.202;20.950;2023-05-07T19:53:33;14.00;91.90
18454;DHT22;9356;52.202;20.950;2023-05-07T19:54:36;11.50;91.20
18454;DHT22;9356;52.202;20.950;2023-05-07T19:55:39;11.40;91.10
18454;DHT22;9356;52.202;20.950;2023-05-07T19:56:46;7.00;89.50
18454;DHT22;9356;52.202;20.950;2023-05-07T19:58:52;11.00;91.20
18454;DHT22;9356;52.202;20.950;2023-05-07T19:59:56;10.90;91.60
18454;DHT22;9356;52.202;20.950;2023-05-07T20:01:04;10.80;91.60
18454;DHT22;9356;52.202;20.950;2023-05-07T20:02:10;10.60;91.70
18454;DHT22;9356;52.202;20.950;2023-05-07T20:03:17;10.60;92.10
18454;DHT22;9356;52.202;20.950;2023-05-07T20:04:21;10.50;91.90
18454;DHT22;9356;52.202;20.950;2023-05-07T20:05:25;10.30;92.10
18454;DHT22;9356;52.202;20.950;2023-05-07T20:07:36;10.20;92.40
18454;DHT22;9356;52.202;20.950;2023-05-07T20:08:39;10.20;92.70
18454;DHT22;9356;52.202;20.950;2023-05-07T20:09:44;9.90;92.80
18454;DHT22;9356;52.202;20.950;2023-05-07T20:10:53;10.00;92.90
18454;DHT22;9356;52.202;20.950;2023-05-07T20:11:56;9.90;93.20
18454;DHT22;9356;52.202;20.950;2023-05-07T20:13:01;9.80;93.30
18454;DHT22;9356;52.202;20.950;2023-05-07T20:14:05;9.90;93.50
18454;DHT22;9356;52.202;20.950;2023-05-07T20:15:09;5.60;92.30
18454;DHT22;9356;52.202;20.950;2023-05-07T20:17:20;9.80;93.90
18454;DHT22;9356;52.202;20.950;2023-05-07T20:18:29;9.70;94.10
18454;DHT22;9356;52.202;20.950;2023-05-07T20:20:36;9.60;94.10
18454;DHT22;9356;52.202;20.950;2023-05-07T20:21:40;9.70;94.20
18454;DHT22;9356;52.202;20.950;2023-05-07T20:22:46;6.60;93.50
18454;DHT22;9356;52.202;20.950;2023-05-07T20:23:49;9.60;94.30
18454;DHT22;9356;52.202;20.950;2023-05-07T20:24:53;9.60;94.40
18454;DHT22;9356;52.202;20.950;2023-05-07T20:26:00;9.60;94.50
18454;DHT22;9356;52.202;20.950;2023-05-07T20:27:02;9.60;94.90
18454;DHT22;9356;52.202;20.950;2023-05-07T20:28:06;9.60;94.80
18454;DHT22;9356;52.202;20.950;2023-05-07T20:29:09;9.50;94.60
18454;DHT22;9356;52.202;20.950;2023-05-07T20:31:29;9.50;94.90
18454;DHT22;9356;52.202;20.950;2023-05-07T20:32:33;9.50;94.90
18454;DHT22;9356;52.202;20.950;2023-05-07T20:33:39;9.50;94.90
18454;DHT22;9356;52.202;20.950;2023-05-07T20:36:52;9.30;95.20
18454;DHT22;9356;52.202;20.950;2023-05-07T20:37:59;9.30;95.30
18454;DHT22;9356;52.202;20.950;2023-05-07T20:39:02;9.40;95.30
18454;DHT22;9356;52.202;20.950;2023-05-07T20:41:11;9.40;95.50
18454;DHT22;9356;52.202;20.950;2023-05-07T20:42:16;9.20;95.30
18454;DHT22;9356;52.202;20.950;2023-05-07T20:43:19;9.20;95.40
18454;DHT22;9356;52.202;20.950;2023-05-07T20:44:23;7.60;95.00
18454;DHT22;9356;52.202;20.950;2023-05-07T20:45:25;9.30;95.60
18454;DHT22;9356;52.202;20.950;2023-05-07T20:47:41;9.20;95.70
18454;DHT22;9356;52.202;20.950;2023-05-07T20:48:45;9.20;95.70
18454;DHT22;9356;52.202;20.950;2023-05-07T20:49:49;9.20;95.90
18454;DHT22;9356;52.202;20.950;2023-05-07T20:50:56;9.20;95.70
18454;DHT22;9356;52.202;20.950;2023-05-07T20:52:01;9.20;95.80
18454;DHT22;9356;52.202;20.950;2023-05-07T20:53:05;9.20;95.80
18454;DHT22;9356;52.202;20.950;2023-05-07T20:54:08;9.20;96.00
18454;DHT22;9356;52.202;20.950;2023-05-07T20:55:12;11.40;96.50
18454;DHT22;9356;52.202;20.950;2023-05-07T20:56:16;9.10;95.80
18454;DHT22;9356;52.202;20.950;2023-05-07T20:57:21;11.50;96.80
18454;DHT22;9356;52.202;20.950;2023-05-07T20:58:26;9.20;96.00
18454;DHT22;9356;52.202;20.950;2023-05-07T20:59:33;9.10;96.30
18454;DHT22;9356;52.202;20.950;2023-05-07T21:00:36;13.10;97.30
18454;DHT22;9356;52.202;20.950;2023-05-07T21:01:46;9.10;96.30
18454;DHT22;9356;52.202;20.950;2023-05-07T21:02:51;12.60;97.40
18454;DHT22;9356;52.202;20.950;2023-05-07T21:03:57;12.20;97.00
18454;DHT22;9356;52.202;20.950;2023-05-07T21:05:01;9.10;96.30
18454;DHT22;9356;52.202;20.950;2023-05-07T21:06:04;6.50;95.50
18454;DHT22;9356;52.202;20.950;2023-05-07T21:07:09;9.50;96.20
18454;DHT22;9356;52.202;20.950;2023-05-07T21:08:13;9.10;96.30
18454;DHT22;9356;52.202;20.950;2023-05-07T21:09:19;9.10;96.30
18454;DHT22;9356;52.202;20.950;2023-05-07T21:10:22;9.10;96.50
18454;DHT22;9356;52.202;20.950;2023-05-07T21:11:29;8.90;96.50
18454;DHT22;9356;52.202;20.950;2023-05-07T21:12:32;9.60;96.80
18454;DHT22;9356;52.202;20.950;2023-05-07T21:13:38;6.80;95.80
18454;DHT22;9356;52.202;20.950;2023-05-07T21:14:45;9.00;96.70
18454;DHT22;9356;52.202;20.950;2023-05-07T21:15:48;12.70;97.80
18454;DHT22;9356;52.202;20.950;2023-05-07T21:16:53;8.90;96.40
18454;DHT22;9356;52.202;20.950;2023-05-07T21:17:56;8.90;96.40
18454;DHT22;9356;52.202;20.950;2023-05-07T21:19:01;8.90;96.80
18454;DHT22;9356;52.202;20.950;2023-05-07T21:21:09;11.40;97.40
18454;DHT22;9356;52.202;20.950;2023-05-07T21:22:12;12.00;97.50
18454;DHT22;9356;52.202;20.950;2023-05-07T21:24:27;8.80;96.70
18454;DHT22;9356;52.202;20.950;2023-05-07T21:25:32;8.80;96.70
18454;DHT22;9356;52.202;20.950;2023-05-07T21:26:35;8.80;97.00
18454;DHT22;9356;52.202;20.950;2023-05-07T21:27:39;8.70;97.00
18454;DHT22;9356;52.202;20.950;2023-05-07T21:28:43;8.80;97.00
18454;DHT22;9356;52.202;20.950;2023-05-07T21:29:50;8.80;97.00
18454;DHT22;9356;52.202;20.950;2023-05-07T21:30:58;8.80;97.20
18454;DHT22;9356;52.202;20.950;2023-05-07T21:32:04;8.70;96.80
18454;DHT22;9356;52.202;20.950;2023-05-07T21:33:10;8.70;97.10
18454;DHT22;9356;52.202;20.950;2023-05-07T21:34:13;5.80;96.00
18454;DHT22;9356;52.202;20.950;2023-05-07T21:35:17;8.70;97.00
18454;DHT22;9356;52.202;20.950;2023-05-07T21:36:21;8.70;97.20
18454;DHT22;9356;52.202;20.950;2023-05-07T21:37:24;8.70;97.10
18454;DHT22;9356;52.202;20.950;2023-05-07T21:38:29;5.80;96.40
18454;DHT22;9356;52.202;20.950;2023-05-07T21:39:32;8.60;97.40
18454;DHT22;9356;52.202;20.950;2023-05-07T21:40:37;4.50;96.00
18454;DHT22;9356;52.202;20.950;2023-05-07T21:41:40;8.60;97.30
18454;DHT22;9356;52.202;20.950;2023-05-07T21:42:44;8.70;97.50
18454;DHT22;9356;52.202;20.950;2023-05-07T21:43:47;8.60;97.30
18454;DHT22;9356;52.202;20.950;2023-05-07T21:44:52;8.60;97.30
18454;DHT22;9356;52.202;20.950;2023-05-07T21:45:56;8.70;97.60
18454;DHT22;9356;52.202;20.950;2023-05-07T21:47:01;8.70;97.30
18454;DHT22;9356;52.202;20.950;2023-05-07T21:48:06;8.60;97.30
18454;DHT22;9356;52.202;20.950;2023-05-07T21:49:10;10.00;97.80
18454;DHT22;9356;52.202;20.950;2023-05-07T21:50:13;8.60;97.30
18454;DHT22;9356;52.202;20.950;2023-05-07T21:51:21;8.60;97.40
18454;DHT22;9356;52.202;20.950;2023-05-07T21:52:25;8.60;97.40
18454;DHT22;9356;52.202;20.950;2023-05-07T21:53:29;8.50;97.20
18454;DHT22;9356;52.202;20.950;2023-05-07T21:54:32;8.50;97.30
18454;DHT22;9356;52.202;20.950;2023-05-07T21:55:36;8.50;97.40
18454;DHT22;9356;52.202;20.950;2023-05-07T21:56:41;8.50;97.70
18454;DHT22;9356;52.202;20.950;2023-05-07T21:57:49;8.50;97.60
18454;DHT22;9356;52.202;20.950;2023-05-07T21:59:06;8.50;97.60
18454;DHT22;9356;52.202;20.950;2023-05-07T22:00:13;8.50;97.90
18454;DHT22;9356;52.202;20.950;2023-05-07T22:01:18;8.50;97.70
18454;DHT22;9356;52.202;20.950;2023-05-07T22:02:22;9.60;98.00